sensor_id;sensor_type;location;lat;lon;timestamp;pressure;altitude;pressure_sealevel;temperature;humidity
8653;BME280;4364;52.426;9.424;2023-09-18T00:00:29;100514.34;;;18.13;100.00
8653;BME280;4364;52.426;9.424;2023-09-18T00:02:56;100508.50;;;18.14;100.00
8653;BME280;4364;52.426;9.424;2023-09-18T00:05:23;100515.28;;;18.17;100.00
8653;BME280;4364;52.426;9.424;2023-09-18T00:07:49;100500.53;;;18.22;100.00
8653;BME280;4364;52.426;9.424;2023-09-18T00:10:16;100501.44;;;18.26;100.00
8653;BME280;4364;52.426;9.424;2023-09-18T00:12:43;100499.00;;;18.33;100.00
8653;BME280;4364;52.426;9.424;2023-09-18T00:15:10;100493.63;;;18.37;100.00
8653;BME280;4364;52.426;9.424;2023-09-18T00:17:36;100477.31;;;18.31;100.00
8653;BME280;4364;52.426;9.424;2023-09-18T00:20:03;100475.22;;;18.28;100.00
8653;BME280;4364;52.426;9.424;2023-09-18T00:22:33;100461.00;;;18.26;100.00
8653;BME280;4364;52.426;9.424;2023-09-18T00:25:00;100453.53;;;18.27;100.00
8653;BME280;4364;52.426;9.424;2023-09-18T00:27:29;100452.88;;;18.30;100.00
8653;BME280;4364;52.426;9.424;2023-09-18T00:29:56;100448.16;;;18.30;100.00
8653;BME280;4364;52.426;9.424;2023-09-18T00:32:22;100456.75;;;18.29;100.00
8653;BME280;4364;52.426;9.424;2023-09-18T00:34:49;100446.78;;;18.24;100.00
8653;BME280;4364;52.426;9.424;2023-09-18T00:37:16;100441.28;;;18.24;100.00
8653;BME280;4364;52.426;9.424;2023-09-18T00:39:43;100438.84;;;18.23;100.00
8653;BME280;4364;52.426;9.424;2023-09-18T00:42:11;100431.84;;;18.25;100.00
8653;BME280;4364;52.426;9.424;2023-09-18T00:44:42;100428.81;;;18.39;100.00
8653;BME280;4364;52.426;9.424;2023-09-18T00:47:09;100416.72;;;18.52;100.00
8653;BME280;4364;52.426;9.424;2023-09-18T00:49:36;100414.19;;;18.47;100.00
8653;BME280;4364;52.426;9.424;2023-09-18T00:52:05;100406.63;;;18.44;100.00
8653;BME280;4364;52.426;9.424;2023-09-18T00:54:33;100406.25;;;18.46;100.00
8653;BME280;4364;52.426;9.424;2023-09-18T00:57:00;100400.63;;;18.42;100.00
8653;BME280;4364;52.426;9.424;2023-09-18T00:59:28;100399.38;;;18.40;100.00
8653;BME280;4364;52.426;9.424;2023-09-18T01:01:54;100386.75;;;18.39;100.00
8653;BME280;4364;52.426;9.424;2023-09-18T01:04:21;100382.72;;;18.36;100.00
8653;BME280;4364;52.426;9.424;2023-09-18T01:06:49;100382.53;;;18.41;100.00
8653;BME280;4364;52.426;9.424;2023-09-18T01:09:18;100374.00;;;18.67;100.00
8653;BME280;4364;52.426;9.424;2023-09-18T01:12:18;100369.03;;;18.61;100.00
8653;BME280;4364;52.426;9.424;2023-09-18T01:15:04;100363.88;;;18.59;100.00
8653;BME280;4364;52.426;9.424;2023-09-18T01:17:37;100366.84;;;18.54;100.00
8653;BME280;4364;52.426;9.424;2023-09-18T01:20:11;100354.13;;;18.62;100.00
8653;BME280;4364;52.426;9.424;2023-09-18T01:22:38;100357.34;;;18.64;100.00
8653;BME280;4364;52.426;9.424;2023-09-18T01:25:05;100354.97;;;18.75;100.00
8653;BME280;4364;52.426;9.424;2023-09-18T01:27:33;100353.38;;;18.74;100.00
8653;BME280;4364;52.426;9.424;2023-09-18T01:29:59;100361.25;;;18.63;100.00
8653;BME280;4364;52.426;9.424;2023-09-18T01:32:28;100354.03;;;18.70;100.00
8653;BME280;4364;52.426;9.424;2023-09-18T01:34:57;100349.81;;;18.73;100.00
8653;BME280;4364;52.426;9.424;2023-09-18T01:37:27;100346.22;;;18.60;100.00
8653;BME280;4364;52.426;9.424;2023-09-18T01:39:55;100349.97;;;18.56;100.00
8653;BME280;4364;52.426;9.424;2023-09-18T01:42:27;100348.84;;;18.57;100.00
8653;BME280;4364;52.426;9.424;2023-09-18T01:44:54;100338.97;;;18.56;100.00
8653;BME280;4364;52.426;9.424;2023-09-18T01:47:22;100345.19;;;18.65;100.00
8653;BME280;4364;52.426;9.424;2023-09-18T01:49:53;100337.72;;;18.53;100.00
8653;BME280;4364;52.426;9.424;2023-09-18T01:52:20;100336.81;;;18.61;100.00
8653;BME280;4364;52.426;9.424;2023-09-18T01:54:47;100337.59;;;18.49;100.00
8653;BME280;4364;52.426;9.424;2023-09-18T01:57:14;100337.38;;;18.55;100.00
8653;BME280;4364;52.426;9.424;2023-09-18T01:59:40;100329.13;;;18.55;100.00
8653;BME280;4364;52.426;9.424;2023-09-18T02:02:08;100315.56;;;18.49;100.00
8653;BME280;4364;52.426;9.424;2023-09-18T02:04:37;100312.16;;;18.65;100.00
8653;BME280;4364;52.426;9.424;2023-09-18T02:07:24;100308.13;;;18.62;100.00
8653;BME280;4364;52.426;9.424;2023-09-18T02:09:51;100307.53;;;18.57;100.00
8653;BME280;4364;52.426;9.424;2023-09-18T02:12:17;100301.03;;;18.61;100.00
8653;BME280;4364;52.426;9.424;2023-09-18T02:14:45;100288.84;;;18.62;100.00
8653;BME280;4364;52.426;9.424;2023-09-18T02:17:12;100294.28;;;18.71;100.00
8653;BME280;4364;52.426;9.424;2023-09-18T02:19:39;100278.88;;;18.70;100.00
8653;BME280;4364;52.426;9.424;2023-09-18T02:22:06;100277.94;;;18.54;100.00
8653;BME280;4364;52.426;9.424;2023-09-18T02:24:33;100283.22;;;18.46;100.00
8653;BME280;4364;52.426;9.424;2023-09-18T02:27:03;100277.59;;;18.43;100.00
8653;BME280;4364;52.426;9.424;2023-09-18T02:29:31;100282.47;;;18.37;100.00
8653;BME280;4364;52.426;9.424;2023-09-18T02:31:57;100279.72;;;18.37;100.00
8653;BME280;4364;52.426;9.424;2023-09-18T02:34:24;100281.47;;;18.42;100.00
8653;BME280;4364;52.426;9.424;2023-09-18T02:36:51;100275.38;;;18.36;100.00
8653;BME280;4364;52.426;9.424;2023-09-18T02:39:17;100278.34;;;18.31;100.00
8653;BME280;4364;52.426;9.424;2023-09-18T02:41:44;100267.91;;;18.24;100.00
8653;BME280;4364;52.426;9.424;2023-09-18T02:44:10;100263.53;;;18.23;100.00
8653;BME280;4364;52.426;9.424;2023-09-18T02:46:37;100266.41;;;18.27;100.00
8653;BME280;4364;52.426;9.424;2023-09-18T02:49:05;100266.41;;;18.27;100.00
8653;BME280;4364;52.426;9.424;2023-09-18T02:51:33;100274.69;;;18.39;100.00
8653;BME280;4364;52.426;9.424;2023-09-18T02:53:59;100266.19;;;18.32;100.00
8653;BME280;4364;52.426;9.424;2023-09-18T02:56:26;100262.41;;;18.24;100.00
8653;BME280;4364;52.426;9.424;2023-09-18T02:58:53;100257.00;;;18.28;100.00
8653;BME280;4364;52.426;9.424;2023-09-18T03:01:20;100255.28;;;18.36;100.00
8653;BME280;4364;52.426;9.424;2023-09-18T03:03:47;100256.81;;;18.45;100.00
8653;BME280;4364;52.426;9.424;2023-09-18T03:06:13;100246.25;;;18.35;100.00
8653;BME280;4364;52.426;9.424;2023-09-18T03:08:40;100246.03;;;18.40;100.00
8653;BME280;4364;52.426;9.424;2023-09-18T03:11:16;100240.75;;;18.47;100.00
8653;BME280;4364;52.426;9.424;2023-09-18T03:13:44;100246.03;;;18.52;100.00
8653;BME280;4364;52.426;9.424;2023-09-18T03:16:16;100237.81;;;18.65;100.00
8653;BME280;4364;52.426;9.424;2023-09-18T03:18:45;100224.50;;;18.67;100.00
8653;BME280;4364;52.426;9.424;2023-09-18T03:21:12;100222.44;;;18.64;100.00
8653;BME280;4364;52.426;9.424;2023-09-18T03:23:38;100223.59;;;18.63;100.00
8653;BME280;4364;52.426;9.424;2023-09-18T03:26:05;100216.91;;;18.64;100.00
8653;BME280;4364;52.426;9.424;2023-09-18T03:28:32;100221.75;;;18.55;100.00
8653;BME280;4364;52.426;9.424;2023-09-18T03:30:58;100218.97;;;18.79;100.00
8653;BME280;4364;52.426;9.424;2023-09-18T03:33:25;100205.69;;;18.81;100.00
8653;BME280;4364;52.426;9.424;2023-09-18T03:35:52;100199.69;;;18.79;100.00
8653;BME280;4364;52.426;9.424;2023-09-18T03:38:24;100203.97;;;18.64;100.00
8653;BME280;4364;52.426;9.424;2023-09-18T03:40:52;100197.66;;;18.76;100.00
8653;BME280;4364;52.426;9.424;2023-09-18T03:43:19;100190.75;;;18.82;100.00
8653;BME280;4364;52.426;9.424;2023-09-18T03:45:46;100189.66;;;18.83;100.00
8653;BME280;4364;52.426;9.424;2023-09-18T03:48:13;100182.19;;;18.96;100.00
8653;BME280;4364;52.426;9.424;2023-09-18T03:50:40;100175.41;;;18.81;100.00
8653;BME280;4364;52.426;9.424;2023-09-18T03:53:08;100169.34;;;18.88;100.00
8653;BME280;4364;52.426;9.424;2023-09-18T03:55:34;100159.81;;;18.98;100.00
8653;BME280;4364;52.426;9.424;2023-09-18T03:58:01;100159.13;;;18.88;100.00
8653;BME280;4364;52.426;9.424;2023-09-18T04:00:28;100152.56;;;18.93;100.00
8653;BME280;4364;52.426;9.424;2023-09-18T04:02:54;100143.03;;;19.03;99.61
8653;BME280;4364;52.426;9.424;2023-09-18T04:05:21;100139.09;;;19.04;99.63
8653;BME280;4364;52.426;9.424;2023-09-18T04:07:48;100125.81;;;18.94;99.36
8653;BME280;4364;52.426;9.424;2023-09-18T04:10:14;100126.28;;;18.96;100.00
8653;BME280;4364;52.426;9.424;2023-09-18T04:12:50;100128.38;;;18.86;100.00
8653;BME280;4364;52.426;9.424;2023-09-18T04:15:18;100118.50;;;18.85;100.00
8653;BME280;4364;52.426;9.424;2023-09-18T04:17:46;100111.00;;;18.86;100.00
8653;BME280;4364;52.426;9.424;2023-09-18T04:20:14;100114.00;;;18.93;100.00
8653;BME280;4364;52.426;9.424;2023-09-18T04:22:45;100107.09;;;18.99;99.17
8653;BME280;4364;52.426;9.424;2023-09-18T04:25:17;100102.75;;;18.98;99.34
8653;BME280;4364;52.426;9.424;2023-09-18T04:27:47;100091.63;;;18.95;99.84
8653;BME280;4364;52.426;9.424;2023-09-18T04:30:17;100085.19;;;18.91;99.93
8653;BME280;4364;52.426;9.424;2023-09-18T04:32:45;100083.47;;;18.86;99.83
8653;BME280;4364;52.426;9.424;2023-09-18T04:35:13;100077.69;;;19.03;98.91
8653;BME280;4364;52.426;9.424;2023-09-18T04:37:40;100065.38;;;19.13;98.15
8653;BME280;4364;52.426;9.424;2023-09-18T04:40:08;100057.47;;;19.12;97.38
8653;BME280;4364;52.426;9.424;2023-09-18T04:42:39;100048.84;;;19.13;97.34
8653;BME280;4364;52.426;9.424;2023-09-18T04:45:06;100042.44;;;19.09;97.28
8653;BME280;4364;52.426;9.424;2023-09-18T04:47:33;100037.25;;;19.07;97.63
8653;BME280;4364;52.426;9.424;2023-09-18T04:50:01;100036.91;;;19.09;97.33
8653;BME280;4364;52.426;9.424;2023-09-18T04:52:36;100025.50;;;19.23;96.36
8653;BME280;4364;52.426;9.424;2023-09-18T04:55:03;100016.13;;;19.12;96.57
8653;BME280;4364;52.426;9.424;2023-09-18T04:57:32;100010.63;;;19.12;97.38
8653;BME280;4364;52.426;9.424;2023-09-18T04:59:59;100001.06;;;19.21;95.69
8653;BME280;4364;52.426;9.424;2023-09-18T05:02:42;100004.16;;;19.20;96.18
8653;BME280;4364;52.426;9.424;2023-09-18T05:05:09;100004.34;;;19.27;95.26
8653;BME280;4364;52.426;9.424;2023-09-18T05:07:36;99999.38;;;19.33;95.27
8653;BME280;4364;52.426;9.424;2023-09-18T05:10:05;99998.03;;;19.27;95.19
8653;BME280;4364;52.426;9.424;2023-09-18T05:12:31;99996.53;;;19.29;95.27
8653;BME280;4364;52.426;9.424;2023-09-18T05:14:58;99999.50;;;19.36;94.63
8653;BME280;4364;52.426;9.424;2023-09-18T05:17:40;99987.59;;;19.48;94.02
8653;BME280;4364;52.426;9.424;2023-09-18T05:20:11;99998.75;;;19.39;93.97
8653;BME280;4364;52.426;9.424;2023-09-18T05:22:40;100027.16;;;19.40;94.18
8653;BME280;4364;52.426;9.424;2023-09-18T05:25:07;100011.75;;;19.39;94.86
8653;BME280;4364;52.426;9.424;2023-09-18T05:27:34;99996.56;;;19.45;94.57
8653;BME280;4364;52.426;9.424;2023-09-18T05:30:00;99995.84;;;19.48;94.37
8653;BME280;4364;52.426;9.424;2023-09-18T05:32:29;100005.63;;;19.46;94.61
8653;BME280;4364;52.426;9.424;2023-09-18T05:34:56;99994.41;;;19.54;93.65
8653;BME280;4364;52.426;9.424;2023-09-18T05:37:29;100005.00;;;19.52;93.77
8653;BME280;4364;52.426;9.424;2023-09-18T05:39:55;99990.78;;;19.66;93.26
8653;BME280;4364;52.426;9.424;2023-09-18T05:42:22;99999.44;;;19.80;92.10
8653;BME280;4364;52.426;9.424;2023-09-18T05:44:48;99988.31;;;19.77;91.24
8653;BME280;4364;52.426;9.424;2023-09-18T05:47:15;99995.31;;;19.74;92.27
8653;BME280;4364;52.426;9.424;2023-09-18T05:49:42;99988.13;;;19.86;91.18
8653;BME280;4364;52.426;9.424;2023-09-18T05:52:09;99977.72;;;19.79;92.09
8653;BME280;4364;52.426;9.424;2023-09-18T05:54:35;99973.19;;;19.87;91.14
8653;BME280;4364;52.426;9.424;2023-09-18T05:57:04;99971.94;;;19.84;91.46
8653;BME280;4364;52.426;9.424;2023-09-18T05:59:30;99974.25;;;19.82;91.67
8653;BME280;4364;52.426;9.424;2023-09-18T06:01:57;99974.97;;;19.79;91.84
8653;BME280;4364;52.426;9.424;2023-09-18T06:04:24;99966.84;;;19.86;91.68
8653;BME280;4364;52.426;9.424;2023-09-18T06:06:50;99962.53;;;19.85;91.78
8653;BME280;4364;52.426;9.424;2023-09-18T06:09:17;99954.75;;;19.91;91.50
8653;BME280;4364;52.426;9.424;2023-09-18T06:11:44;99949.94;;;19.88;91.58
8653;BME280;4364;52.426;9.424;2023-09-18T06:14:11;99930.91;;;19.83;92.24
8653;BME280;4364;52.426;9.424;2023-09-18T06:16:38;99933.25;;;19.80;92.72
8653;BME280;4364;52.426;9.424;2023-09-18T06:19:04;99937.94;;;19.96;91.75
8653;BME280;4364;52.426;9.424;2023-09-18T06:21:31;99929.56;;;20.08;90.54
8653;BME280;4364;52.426;9.424;2023-09-18T06:23:58;99925.31;;;19.95;91.73
8653;BME280;4364;52.426;9.424;2023-09-18T06:26:24;99920.31;;;20.01;91.35
8653;BME280;4364;52.426;9.424;2023-09-18T06:28:51;99919.91;;;20.18;90.31
8653;BME280;4364;52.426;9.424;2023-09-18T06:31:22;99915.53;;;20.17;90.19
8653;BME280;4364;52.426;9.424;2023-09-18T06:33:49;99911.19;;;20.16;90.24
8653;BME280;4364;52.426;9.424;2023-09-18T06:36:16;99927.94;;;20.07;91.14
8653;BME280;4364;52.426;9.424;2023-09-18T06:38:43;99916.97;;;20.11;91.15
8653;BME280;4364;52.426;9.424;2023-09-18T06:41:09;99916.78;;;20.20;90.60
8653;BME280;4364;52.426;9.424;2023-09-18T06:43:36;99909.59;;;20.15;90.85
8653;BME280;4364;52.426;9.424;2023-09-18T06:46:02;99909.66;;;20.18;90.88
8653;BME280;4364;52.426;9.424;2023-09-18T06:48:29;99925.97;;;20.08;91.95
8653;BME280;4364;52.426;9.424;2023-09-18T06:50:59;99909.53;;;20.11;91.66
8653;BME280;4364;52.426;9.424;2023-09-18T06:53:29;99917.31;;;20.25;90.71
8653;BME280;4364;52.426;9.424;2023-09-18T06:55:55;99920.06;;;20.25;91.00
8653;BME280;4364;52.426;9.424;2023-09-18T06:58:22;99924.16;;;20.31;90.32
8653;BME280;4364;52.426;9.424;2023-09-18T07:00:48;99926.75;;;20.44;88.46
8653;BME280;4364;52.426;9.424;2023-09-18T07:03:16;99923.00;;;20.52;87.03
8653;BME280;4364;52.426;9.424;2023-09-18T07:05:45;99933.53;;;20.66;85.81
8653;BME280;4364;52.426;9.424;2023-09-18T07:08:13;99927.50;;;20.80;85.03
8653;BME280;4364;52.426;9.424;2023-09-18T07:10:39;99937.88;;;20.86;84.29
8653;BME280;4364;52.426;9.424;2023-09-18T07:13:06;99934.03;;;20.91;83.33
8653;BME280;4364;52.426;9.424;2023-09-18T07:15:32;99931.78;;;20.97;83.21
8653;BME280;4364;52.426;9.424;2023-09-18T07:17:59;99938.84;;;20.94;83.68
8653;BME280;4364;52.426;9.424;2023-09-18T07:20:26;99941.59;;;20.94;83.28
8653;BME280;4364;52.426;9.424;2023-09-18T07:22:52;99945.91;;;20.91;83.72
8653;BME280;4364;52.426;9.424;2023-09-18T07:25:19;99954.75;;;21.01;83.31
8653;BME280;4364;52.426;9.424;2023-09-18T07:27:45;99947.94;;;21.18;81.84
8653;BME280;4364;52.426;9.424;2023-09-18T07:30:13;99946.19;;;21.29;81.45
8653;BME280;4364;52.426;9.424;2023-09-18T07:32:44;99941.13;;;21.35;81.66
8653;BME280;4364;52.426;9.424;2023-09-18T07:35:10;99922.06;;;21.49;80.75
8653;BME280;4364;52.426;9.424;2023-09-18T07:37:37;99927.22;;;21.51;80.45
8653;BME280;4364;52.426;9.424;2023-09-18T07:40:07;99943.50;;;21.56;80.95
8653;BME280;4364;52.426;9.424;2023-09-18T07:42:33;99949.97;;;21.63;80.59
8653;BME280;4364;52.426;9.424;2023-09-18T07:45:00;99961.78;;;21.60;80.49
8653;BME280;4364;52.426;9.424;2023-09-18T07:47:27;99963.03;;;21.67;80.56
8653;BME280;4364;52.426;9.424;2023-09-18T07:49:56;99971.41;;;21.70;79.89
8653;BME280;4364;52.426;9.424;2023-09-18T07:52:23;99976.28;;;21.77;79.27
8653;BME280;4364;52.426;9.424;2023-09-18T07:54:49;99970.94;;;21.91;79.32
8653;BME280;4364;52.426;9.424;2023-09-18T07:57:16;99966.34;;;21.99;78.60
8653;BME280;4364;52.426;9.424;2023-09-18T07:59:44;99965.22;;;22.04;78.46
8653;BME280;4364;52.426;9.424;2023-09-18T08:02:10;99966.38;;;22.02;78.83
8653;BME280;4364;52.426;9.424;2023-09-18T08:04:37;99970.31;;;22.01;78.58
8653;BME280;4364;52.426;9.424;2023-09-18T08:07:04;99975.09;;;22.05;78.66
8653;BME280;4364;52.426;9.424;2023-09-18T08:09:33;99971.06;;;21.98;78.97
8653;BME280;4364;52.426;9.424;2023-09-18T08:12:03;99983.03;;;22.06;78.72
8653;BME280;4364;52.426;9.424;2023-09-18T08:14:30;99990.50;;;22.02;78.66
8653;BME280;4364;52.426;9.424;2023-09-18T08:17:01;99992.25;;;22.14;78.38
8653;BME280;4364;52.426;9.424;2023-09-18T08:19:29;100000.19;;;22.15;78.52
8653;BME280;4364;52.426;9.424;2023-09-18T08:21:55;99991.19;;;22.22;77.96
8653;BME280;4364;52.426;9.424;2023-09-18T08:24:22;99987.41;;;22.30;77.78
8653;BME280;4364;52.426;9.424;2023-09-18T08:26:49;99978.16;;;22.49;77.29
8653;BME280;4364;52.426;9.424;2023-09-18T08:29:16;99979.53;;;22.36;77.34
8653;BME280;4364;52.426;9.424;2023-09-18T08:31:44;99980.59;;;22.28;77.38
8653;BME280;4364;52.426;9.424;2023-09-18T08:34:11;99971.56;;;22.31;77.46
8653;BME280;4364;52.426;9.424;2023-09-18T08:36:38;99969.88;;;22.26;77.83
8653;BME280;4364;52.426;9.424;2023-09-18T08:39:04;99968.69;;;22.24;77.33
8653;BME280;4364;52.426;9.424;2023-09-18T08:41:38;99969.09;;;22.26;77.70
8653;BME280;4364;52.426;9.424;2023-09-18T08:44:07;99966.53;;;22.13;78.43
8653;BME280;4364;52.426;9.424;2023-09-18T08:46:34;99960.38;;;22.24;77.65
8653;BME280;4364;52.426;9.424;2023-09-18T08:49:01;99966.41;;;22.29;78.10
8653;BME280;4364;52.426;9.424;2023-09-18T08:51:28;99965.63;;;22.29;78.48
8653;BME280;4364;52.426;9.424;2023-09-18T08:53:56;99971.16;;;22.29;77.38
8653;BME280;4364;52.426;9.424;2023-09-18T08:56:23;99966.03;;;22.31;76.90
8653;BME280;4364;52.426;9.424;2023-09-18T08:58:50;99953.63;;;22.25;77.31
8653;BME280;4364;52.426;9.424;2023-09-18T09:01:18;99956.13;;;22.30;77.65
8653;BME280;4364;52.426;9.424;2023-09-18T09:03:46;99960.88;;;22.29;77.43
8653;BME280;4364;52.426;9.424;2023-09-18T09:06:13;99970.81;;;22.34;77.24
8653;BME280;4364;52.426;9.424;2023-09-18T09:08:39;99970.81;;;22.34;77.75
8653;BME280;4364;52.426;9.424;2023-09-18T09:11:06;99966.03;;;22.31;77.79
8653;BME280;4364;52.426;9.424;2023-09-18T09:13:32;99963.19;;;22.27;78.39
8653;BME280;4364;52.426;9.424;2023-09-18T09:16:11;99960.25;;;22.16;77.87
8653;BME280;4364;52.426;9.424;2023-09-18T09:18:50;99976.06;;;22.16;78.16
8653;BME280;4364;52.426;9.424;2023-09-18T09:21:18;99981.94;;;22.11;78.52
8653;BME280;4364;52.426;9.424;2023-09-18T09:23:50;99988.31;;;22.15;78.29
8653;BME280;4364;52.426;9.424;2023-09-18T09:26:21;99996.88;;;22.06;78.83
8653;BME280;4364;52.426;9.424;2023-09-18T09:28:49;99985.91;;;22.13;78.33
8653;BME280;4364;52.426;9.424;2023-09-18T09:31:28;99996.09;;;22.06;79.27
8653;BME280;4364;52.426;9.424;2023-09-18T09:33:55;99982.56;;;22.00;79.27
8653;BME280;4364;52.426;9.424;2023-09-18T09:36:23;99998.53;;;22.11;79.31
8653;BME280;4364;52.426;9.424;2023-09-18T09:38:57;99987.78;;;22.06;79.92
8653;BME280;4364;52.426;9.424;2023-09-18T09:41:26;99993.78;;;22.11;79.42
8653;BME280;4364;52.426;9.424;2023-09-18T09:43:54;100001.34;;;22.14;79.77
8653;BME280;4364;52.426;9.424;2023-09-18T09:46:22;99996.94;;;22.10;79.45
8653;BME280;4364;52.426;9.424;2023-09-18T09:49:05;99990.34;;;22.18;79.14
8653;BME280;4364;52.426;9.424;2023-09-18T09:51:33;99986.59;;;22.07;79.48
8653;BME280;4364;52.426;9.424;2023-09-18T09:54:01;99992.50;;;22.05;79.28
8653;BME280;4364;52.426;9.424;2023-09-18T09:56:48;99995.53;;;21.96;80.12
8653;BME280;4364;52.426;9.424;2023-09-18T09:59:18;99991.72;;;22.05;80.08
8653;BME280;4364;52.426;9.424;2023-09-18T10:01:49;99991.44;;;22.13;79.84
8653;BME280;4364;52.426;9.424;2023-09-18T10:04:18;99998.63;;;22.18;79.62
8653;BME280;4364;52.426;9.424;2023-09-18T10:06:56;99994.38;;;22.24;79.55
8653;BME280;4364;52.426;9.424;2023-09-18T10:09:27;99997.84;;;22.17;79.52
8653;BME280;4364;52.426;9.424;2023-09-18T10:11:56;100015.53;;;22.09;79.79
8653;BME280;4364;52.426;9.424;2023-09-18T10:14:32;100004.06;;;22.11;80.06
8653;BME280;4364;52.426;9.424;2023-09-18T10:17:21;99996.75;;;22.22;79.79
8653;BME280;4364;52.426;9.424;2023-09-18T10:20:02;100001.03;;;22.19;79.89
8653;BME280;4364;52.426;9.424;2023-09-18T10:22:39;100013.16;;;22.11;80.03
8653;BME280;4364;52.426;9.424;2023-09-18T10:25:20;100017.50;;;22.09;79.92
8653;BME280;4364;52.426;9.424;2023-09-18T10:27:50;100023.81;;;22.09;80.18
8653;BME280;4364;52.426;9.424;2023-09-18T10:30:20;100029.31;;;22.06;79.64
8653;BME280;4364;52.426;9.424;2023-09-18T10:32:51;100022.13;;;22.01;78.78
8653;BME280;4364;52.426;9.424;2023-09-18T10:35:18;100023.34;;;22.04;78.35
8653;BME280;4364;52.426;9.424;2023-09-18T10:37:48;100020.13;;;22.01;77.25
8653;BME280;4364;52.426;9.424;2023-09-18T10:40:15;100027.22;;;21.99;76.22
8653;BME280;4364;52.426;9.424;2023-09-18T10:42:42;100027.72;;;21.81;77.06
8653;BME280;4364;52.426;9.424;2023-09-18T10:45:10;100029.00;;;21.88;76.29
8653;BME280;4364;52.426;9.424;2023-09-18T10:47:42;100030.53;;;21.85;77.07
8653;BME280;4364;52.426;9.424;2023-09-18T10:50:09;100029.25;;;22.02;76.87
8653;BME280;4364;52.426;9.424;2023-09-18T10:52:42;100021.38;;;22.04;76.49
8653;BME280;4364;52.426;9.424;2023-09-18T10:55:14;100019.91;;;22.10;76.49
8653;BME280;4364;52.426;9.424;2023-09-18T10:57:51;100033.19;;;22.28;76.37
8653;BME280;4364;52.426;9.424;2023-09-18T11:00:20;100028.16;;;22.33;75.44
8653;BME280;4364;52.426;9.424;2023-09-18T11:02:52;100040.91;;;22.38;75.32
8653;BME280;4364;52.426;9.424;2023-09-18T11:05:29;100052.75;;;22.38;74.53
8653;BME280;4364;52.426;9.424;2023-09-18T11:08:34;100074.22;;;22.45;74.96
8653;BME280;4364;52.426;9.424;2023-09-18T11:11:10;100047.63;;;22.37;75.09
8653;BME280;4364;52.426;9.424;2023-09-18T11:13:42;100037.94;;;22.50;74.95
8653;BME280;4364;52.426;9.424;2023-09-18T11:21:31;100043.97;;;22.60;72.14
8653;BME280;4364;52.426;9.424;2023-09-18T11:26:34;100054.53;;;22.77;71.56
8653;BME280;4364;52.426;9.424;2023-09-18T11:29:03;100048.06;;;23.00;71.70
8653;BME280;4364;52.426;9.424;2023-09-18T11:31:45;100051.63;;;23.00;71.98
8653;BME280;4364;52.426;9.424;2023-09-18T11:34:21;100051.25;;;23.02;72.22
8653;BME280;4364;52.426;9.424;2023-09-18T11:36:48;100044.78;;;22.90;71.84
8653;BME280;4364;52.426;9.424;2023-09-18T11:42:18;100051.22;;;22.68;72.53
8653;BME280;4364;52.426;9.424;2023-09-18T11:44:46;100043.38;;;22.73;72.35
8653;BME280;4364;52.426;9.424;2023-09-18T11:47:19;100053.31;;;22.78;72.02
8653;BME280;4364;52.426;9.424;2023-09-18T11:50:10;100054.72;;;22.65;72.70
8653;BME280;4364;52.426;9.424;2023-09-18T11:52:38;100056.75;;;22.68;72.59
8653;BME280;4364;52.426;9.424;2023-09-18T11:55:08;100057.09;;;22.63;72.78
8653;BME280;4364;52.426;9.424;2023-09-18T11:57:37;100051.53;;;22.63;71.95
8653;BME280;4364;52.426;9.424;2023-09-18T12:00:04;100068.16;;;22.63;71.51
8653;BME280;4364;52.426;9.424;2023-09-18T12:02:38;100059.22;;;22.46;72.89
8653;BME280;4364;52.426;9.424;2023-09-18T12:05:13;100058.47;;;22.49;73.47
8653;BME280;4364;52.426;9.424;2023-09-18T12:07:46;100062.69;;;22.39;73.14
8653;BME280;4364;52.426;9.424;2023-09-18T12:10:15;100067.84;;;22.41;73.06
8653;BME280;4364;52.426;9.424;2023-09-18T12:12:44;100067.06;;;22.41;73.03
8653;BME280;4364;52.426;9.424;2023-09-18T12:15:11;100073.50;;;22.48;73.74
8653;BME280;4364;52.426;9.424;2023-09-18T12:17:38;100081.94;;;22.55;73.41
8653;BME280;4364;52.426;9.424;2023-09-18T12:20:05;100073.28;;;22.61;73.23
8653;BME280;4364;52.426;9.424;2023-09-18T12:22:32;100086.53;;;22.74;72.61
8653;BME280;4364;52.426;9.424;2023-09-18T12:25:11;100078.69;;;22.80;71.73
8653;BME280;4364;52.426;9.424;2023-09-18T12:27:42;100080.03;;;22.63;72.23
8653;BME280;4364;52.426;9.424;2023-09-18T12:30:09;100073.72;;;22.63;72.97
8653;BME280;4364;52.426;9.424;2023-09-18T12:32:37;100075.41;;;22.71;73.15
8653;BME280;4364;52.426;9.424;2023-09-18T12:35:06;100074.66;;;22.74;72.47
8653;BME280;4364;52.426;9.424;2023-09-18T12:37:34;100068.13;;;22.89;71.70
8653;BME280;4364;52.426;9.424;2023-09-18T12:40:02;100065.72;;;22.88;71.41
8653;BME280;4364;52.426;9.424;2023-09-18T12:42:34;100063.41;;;22.93;69.78
8653;BME280;4364;52.426;9.424;2023-09-18T12:45:02;100065.16;;;22.75;69.62
8653;BME280;4364;52.426;9.424;2023-09-18T12:47:29;100061.25;;;22.49;70.21
8653;BME280;4364;52.426;9.424;2023-09-18T12:50:02;100056.44;;;22.46;70.05
8653;BME280;4364;52.426;9.424;2023-09-18T12:52:31;100044.25;;;22.51;70.79
8653;BME280;4364;52.426;9.424;2023-09-18T12:54:58;100031.34;;;22.62;70.50
8653;BME280;4364;52.426;9.424;2023-09-18T12:57:27;100040.53;;;22.70;71.19
8653;BME280;4364;52.426;9.424;2023-09-18T12:59:55;100040.19;;;22.71;70.95
8653;BME280;4364;52.426;9.424;2023-09-18T13:02:22;100044.50;;;22.69;70.13
8653;BME280;4364;52.426;9.424;2023-09-18T13:04:56;100038.53;;;22.67;70.84
8653;BME280;4364;52.426;9.424;2023-09-18T13:07:23;100043.69;;;22.68;70.45
8653;BME280;4364;52.426;9.424;2023-09-18T13:10:04;100032.66;;;22.72;70.42
8653;BME280;4364;52.426;9.424;2023-09-18T13:15:31;100035.88;;;22.74;70.60
8653;BME280;4364;52.426;9.424;2023-09-18T13:18:00;100027.56;;;22.74;70.02
8653;BME280;4364;52.426;9.424;2023-09-18T13:20:29;100030.28;;;22.70;70.90
8653;BME280;4364;52.426;9.424;2023-09-18T13:23:00;100021.56;;;22.72;70.61
8653;BME280;4364;52.426;9.424;2023-09-18T13:25:35;100026.97;;;22.91;70.67
8653;BME280;4364;52.426;9.424;2023-09-18T13:28:03;100048.81;;;22.97;69.57
8653;BME280;4364;52.426;9.424;2023-09-18T13:30:31;100046.06;;;23.00;69.21
8653;BME280;4364;52.426;9.424;2023-09-18T13:33:13;100038.06;;;23.25;68.55
8653;BME280;4364;52.426;9.424;2023-09-18T13:35:43;100035.28;;;23.59;68.36